Track Божко Екатерина

Time Latitude Longitude Accuracy (66% radius in meters) Altitude (meters) Speed (km/hour) Bearing (degrees) Battery (%) GPS flag
09:54:43 44.565644 38.170143 8 130.77304036925 1.4697241783142 120.94145202637 87 1 delete
09:54:40 44.565686 38.170073 8 131.31610979121 1.3109966516495 130.86012268066 87 1 delete
09:54:34 44.565742 38.169992 6 132.26392590735 1.2566641569138 139.63760375977 87 1 delete
09:54:31 44.565793 38.169936 8 132.55360574545 1.1347134113312 128.23922729492 87 1 delete
09:54:28 44.565825 38.169893 6 132.72097017088 1.1015141010284 125.47792053223 87 1 delete
09:54:22 44.565871 38.169856 6 132.56401384369 1.1185443401337 115.44612884521 87 1 delete
09:54:19 44.565897 38.169822 6 132.26405940126 1.1378154754639 169.41247558594 87 1 delete
09:54:16 44.565933 38.169819 8 132.22633380234 1.2083122730255 169.1674041748 87 1 delete
09:54:13 44.565989 38.169806 8 132.28853767948 1.2461042404175 137.41804504395 87 1 delete
09:54:10 44.566034 38.169764 8 132.4981152818 1.2177667617798 252.95460510254 87 1 delete
09:54:04 44.566108 38.169837 8 133.25377959753 1.104196190834 191.93049621582 87 1 delete
09:54:01 44.566166 38.169824 8 133.72883992015 0.95150154829025 184.07904052734 87 1 delete
09:53:55 44.566254 38.169815 6 134.93768828779 0.64903521537781 163.51844787598 87 1 delete
09:53:49 44.566303 38.169809 8 136.10633755259 0.54452741146088 202.65711975098 87 1 delete
09:53:40 44.566354 38.169788 12 137.67342330005 0.32838806509972 63.843379974365 87 1 delete
09:53:28 44.566339 38.169763 6 138.15059624866 0.97032880783081 153.27928161621 87 1 delete
09:53:22 44.566295 38.169729 8 139.44883640747 1.0645115375519 83.528450012207 87 1 delete
09:53:19 44.566258 38.169690 8 140.23678773726 1.1215960979462 25.703336715698 87 1 delete
09:53:13 44.566201 38.169633 6 141.80724080039 1.2573739290237 47.047367095947 87 1 delete
09:53:10 44.566143 38.169616 6 142.34643525014 1.2502247095108 350.06454467773 87 1 delete
09:53:07 44.566085 38.169637 8 142.81605911985 1.2275505065918 23.162050247192 87 1 delete
09:53:04 44.566025 38.169624 8 143.39142428348 1.0959122180939 6.6387758255005 87 1 delete
09:52:52 44.565933 38.169574 8 144.57242640291 0.2579630613327 58.931324005127 87 1 delete
09:52:46 44.565923 38.169525 16 144.66067836639 0.21009588241577 249.75091552734 87 1 delete
09:52:37 44.565933 38.169498 8 145.49464520035 0.55680596828461 133.7787322998 87 1 delete
09:52:34 44.565953 38.169471 16 146.128632641 0.038413662463427 208.607421875 87 1 delete
09:52:25 44.565956 38.169431 8 146.08159861414 0.27554219961166 30.104110717773 87 1 delete
09:52:22 44.565954 38.169417 8 146.06170057587 0.27594473958015 30.104110717773 87 1 delete
09:52:16 44.565915 38.169393 8 146.39397841083 1.4676113128662 18.166791915894 87 1 delete
09:52:13 44.565873 38.169345 8 146.90681882558 1.5661082267761 47.935562133789 87 1 delete
09:52:10 44.565826 38.169315 8 147.12494824138 1.5938549041748 27.592266082764 87 1 delete
09:52:07 44.565787 38.169283 8 147.60702952963 0.75176352262497 2.2803869247437 87 1 delete
09:52:01 44.565760 38.169249 6 149.00766253483 0.47197052836418 77.423393249512 87 1 delete
09:51:55 44.565758 38.169220 6 149.88844964448 0.59595197439194 58.942802429199 87 1 delete
09:51:49 44.565711 38.169169 8 150.53232473317 0.95174473524094 20.728483200073 87 1 delete
09:51:43 44.565665 38.169171 8 150.66417360137 0.77116751670837 18.578109741211 87 1 delete
09:51:37 44.565614 38.169133 8 150.73172245163 0.57693207263947 43.52054977417 87 1 delete
09:51:25 44.565581 38.169120 6 149.76873359431 0.73579031229019 327.90478515625 87 1 delete
09:51:22 44.565563 38.169122 6 149.85116523404 1.1795241832733 78.552940368652 87 1 delete
09:51:16 44.565533 38.169028 6 149.75657821622 1.3462451696396 54.937526702881 87 1 delete
09:51:13 44.565499 38.168964 6 149.74741224518 1.4643348455429 41.176029205322 87 1 delete
09:51:10 44.565456 38.168915 6 149.63320399981 1.5282102823257 33.317310333252 87 1 delete
09:51:07 44.565415 38.168875 6 149.64461537558 1.6089037656784 51.108039855957 87 1 delete
09:51:04 44.565393 38.168837 6 149.7903870272 1.6526021957397 40.65051651001 87 1 delete
09:51:01 44.565373 38.168773 6 149.93042529022 1.6395777463913 91.892723083496 87 1 delete
09:50:58 44.565358 38.168687 6 150.02114549969 1.5872917175293 93.650428771973 87 1 delete
09:50:55 44.565341 38.168628 6 149.97584257195 1.5875780582428 58.663787841797 87 1 delete
09:50:52 44.565322 38.168557 8 149.85989117146 1.5194571018219 80.298187255859 87 1 delete
09:50:46 44.565331 38.168422 8 149.73443306821 0.48585557937622 91.982597351074 87 1 delete
09:50:40 44.565284 38.168380 8 149.63416563599 1.0580117702484 24.273729324341 87 1 delete